Dame Des Tropiques — FQJE — position and weather

sailwx.info

Track history (hours):
 
Tides and Currents Weather Stations Pressure Air Temp Water Temp Dewpoint Dewpoint Depression Visibility Wind Speed Wind Dir Waves Ship Positions

Dame Des Tropiques

Last reported at 2017-May-24 17:30 UTC. Time now 2017-May-24 17:48 UTC.
Position N 40°59' E 002°24'.

Length 28 m.

Type: Sailing vessel. MMSI: 227471410.

Date/timePositionNaut miles runAvg speedWind from/ knotsBaromVisibWave heightAir tempDewpointWater temp
2017-May-24 17:30N 40°59' E 002°24'4 5.6
2017-May-24 16:49N 41°03' E 002°23'2 7.1
2017-May-24 16:29N 41°05' E 002°22'5 6.1
2017-May-24 15:40N 41°10' E 002°21'1 4.6
2017-May-24 15:28N 41°11' E 002°20'14 0.7
2017-May-23 19:24N 41°23' E 002°11'0 0.0
2017-May-22 19:50N 41°23' E 002°11'0 0.1
2017-May-22 19:24N 41°23' E 002°11'1 0.0
2017-May-21 19:15N 41°22' E 002°11'  
2017-May-18 08:04N 42°06' E 004°02'14 5.7
2017-May-18 05:39N 42°14' E 004°17'1 5.0
2017-May-18 05:30N 42°14' E 004°18'3 6.1
2017-May-18 05:00N 42°16' E 004°22'3 6.2
2017-May-18 04:30N 42°18' E 004°25'3 5.8
2017-May-18 04:00N 42°19' E 004°29'3 5.6
2017-May-18 03:29N 42°21' E 004°32'2 4.4
2017-May-18 02:58N 42°22' E 004°35'3 6.2
2017-May-18 02:30N 42°24' E 004°38'5 8.2
2017-May-18 01:58N 42°26' E 004°43'3 5.4
2017-May-18 01:29N 42°28' E 004°45'2 3.5
2017-May-18 01:01N 42°28' E 004°48'2 3.9
2017-May-18 00:30N 42°29' E 004°50'3 5.2
2017-May-18 00:00N 42°30' E 004°53'3 5.3
2017-May-17 23:30N 42°32' E 004°56'3 5.7
2017-May-17 23:00N 42°33' E 004°59'3 6.3
2017-May-17 22:30N 42°35' E 005°03'3 5.9
2017-May-17 22:00N 42°37' E 005°06'3 6.3
2017-May-17 21:30N 42°39' E 005°09'3 6.1
2017-May-17 21:00N 42°41' E 005°12'3 6.1
2017-May-17 20:30N 42°43' E 005°15'3 5.6
2017-May-17 20:00N 42°45' E 005°18'3 5.2
2017-May-17 19:30N 42°47' E 005°21'3 5.3
2017-May-17 19:00N 42°48' E 005°24'3 5.8
2017-May-17 18:30N 42°50' E 005°27'3 5.8
2017-May-17 17:59N 42°51' E 005°30'3 5.6
2017-May-17 17:29N 42°53' E 005°34'6 6.1
2017-May-17 16:27N 42°55' E 005°42'15 4.8
2017-May-17 13:25N 43°06' E 005°55'  
Track history (hours):
 
Tides and Currents Weather Stations Pressure Air Temp Water Temp Dewpoint Dewpoint Depression Visibility Wind Speed Wind Dir Waves Ship Positions

Dame Des Tropiques

Last reported at 2017-May-24 17:30 UTC. Time now 2017-May-24 17:48 UTC.
Position N 40°59' E 002°24'.

Length 28 m.

Type: Sailing vessel. MMSI: 227471410.

Date/timePositionNaut miles runAvg speedWind from/ knotsBaromVisibWave heightAir tempDewpointWater temp
2017-May-24 17:30N 40°59' E 002°24'4 5.6
2017-May-24 16:49N 41°03' E 002°23'2 7.1
2017-May-24 16:29N 41°05' E 002°22'5 6.1
2017-May-24 15:40N 41°10' E 002°21'1 4.6
2017-May-24 15:28N 41°11' E 002°20'14 0.7
2017-May-23 19:24N 41°23' E 002°11'0 0.0
2017-May-22 19:50N 41°23' E 002°11'0 0.1
2017-May-22 19:24N 41°23' E 002°11'1 0.0
2017-May-21 19:15N 41°22' E 002°11'  
2017-May-18 08:04N 42°06' E 004°02'14 5.7
2017-May-18 05:39N 42°14' E 004°17'1 5.0
2017-May-18 05:30N 42°14' E 004°18'3 6.1
2017-May-18 05:00N 42°16' E 004°22'3 6.2
2017-May-18 04:30N 42°18' E 004°25'3 5.8
2017-May-18 04:00N 42°19' E 004°29'3 5.6
2017-May-18 03:29N 42°21' E 004°32'2 4.4
2017-May-18 02:58N 42°22' E 004°35'3 6.2
2017-May-18 02:30N 42°24' E 004°38'5 8.2
2017-May-18 01:58N 42°26' E 004°43'3 5.4
2017-May-18 01:29N 42°28' E 004°45'2 3.5
2017-May-18 01:01N 42°28' E 004°48'2 3.9
2017-May-18 00:30N 42°29' E 004°50'3 5.2
2017-May-18 00:00N 42°30' E 004°53'3 5.3
2017-May-17 23:30N 42°32' E 004°56'3 5.7
2017-May-17 23:00N 42°33' E 004°59'3 6.3
2017-May-17 22:30N 42°35' E 005°03'3 5.9
2017-May-17 22:00N 42°37' E 005°06'3 6.3
2017-May-17 21:30N 42°39' E 005°09'3 6.1
2017-May-17 21:00N 42°41' E 005°12'3 6.1
2017-May-17 20:30N 42°43' E 005°15'3 5.6
2017-May-17 20:00N 42°45' E 005°18'3 5.2
2017-May-17 19:30N 42°47' E 005°21'3 5.3
2017-May-17 19:00N 42°48' E 005°24'3 5.8
2017-May-17 18:30N 42°50' E 005°27'3 5.8
2017-May-17 17:59N 42°51' E 005°30'3 5.6
2017-May-17 17:29N 42°53' E 005°34'6 6.1
2017-May-17 16:27N 42°55' E 005°42'15 4.8
2017-May-17 13:25N 43°06' E 005°55'  

Dump ship's entire track history